»·PEaware :: SWA257 KLAS-KSNA

SWA257 :: KLAS-KSNA

FLIGHT INFORMATION

Flight Status: Arrived
Operator:
Southwest Airlines
More flights by this operator :: More flights under this callsign
Pilot: Cody B. (17747)
Aircraft: BOEING 737-800
(B738)
More flights by this aircraft type
Origin: KLAS McCarran Intl
United States
Destination: KSNA John Wayne-Orange Co
United States
More flights between these airports :: More routes between these airports
Route: BOACH8 WHIGG FEYLA DSNEE3
File this flight plan on PilotEdge
Remarks:
Altitude:
(Current/Filed)
28,000ft
Speed:
(Current/Filed)
477kts
Departed: 05-Jul-18 02:17 PM
Arrived: 05-Jul-18 03:04 PM
Distance/Time
Traveled:
197nm/0:47
Distance/Time
To Go:
Arrived

Flight Plot

Page will automatically refresh every two minutes.

Flight plan parsing failed; only flown route is shown


Map Options




Map Legend


Flown Route
Filed Route
Departure Airport
Arrival Airport
Navaid (VOR, NDB)
Fix

Horizontal Profiles

Position Reports

Time Latitude Longitude Heading Altitude Ground
Speed
05-Jul-18 13:37 36.079923 -115.147118 57 2096ft 0kts
05-Jul-18 13:38 36.079923 -115.147118 57 2096ft 0kts
05-Jul-18 13:39 36.079923 -115.147118 57 2096ft 0kts
05-Jul-18 13:40 36.079923 -115.147118 57 2096ft 0kts
05-Jul-18 13:41 36.079923 -115.147118 57 2096ft 0kts
05-Jul-18 13:42 36.079923 -115.147118 57 2096ft 0kts
05-Jul-18 13:43 36.079923 -115.147118 57 2096ft 0kts
05-Jul-18 13:44 36.079923 -115.147118 57 2096ft 0kts
05-Jul-18 13:45 36.079923 -115.147118 57 2096ft 0kts
05-Jul-18 13:46 36.079923 -115.147118 57 2096ft 0kts
05-Jul-18 13:47 36.079923 -115.147118 57 2096ft 0kts
05-Jul-18 13:48 36.079923 -115.147118 57 2096ft 0kts
05-Jul-18 13:49 36.079923 -115.147118 57 2096ft 0kts
05-Jul-18 13:50 36.079923 -115.147118 57 2096ft 0kts
05-Jul-18 13:51 36.079923 -115.147118 57 2096ft 0kts
05-Jul-18 13:53 36.079923 -115.147118 57 2096ft 0kts
05-Jul-18 13:54 36.079923 -115.147118 57 2096ft 0kts
05-Jul-18 13:55 36.079923 -115.147118 57 2096ft 0kts
05-Jul-18 13:56 36.079923 -115.147118 57 2096ft 0kts
05-Jul-18 13:57 36.079923 -115.147118 57 2096ft 0kts
05-Jul-18 13:58 36.079923 -115.147118 57 2096ft 0kts
05-Jul-18 13:59 36.079923 -115.147118 57 2096ft 0kts
05-Jul-18 14:00 36.079923 -115.147118 57 2096ft 0kts
05-Jul-18 14:01 36.079923 -115.147118 57 2096ft 0kts
05-Jul-18 14:02 36.079923 -115.147118 57 2096ft 0kts
05-Jul-18 14:03 36.079726 -115.147367 63 2098ft 2kts
05-Jul-18 14:04 36.079880 -115.147895 158 2099ft 1kts
05-Jul-18 14:05 36.079908 -115.147910 154 2099ft 0kts
05-Jul-18 14:06 36.079908 -115.147910 154 2099ft 0kts
05-Jul-18 14:07 36.079561 -115.147687 153 2100ft 5kts
05-Jul-18 14:08 36.079285 -115.147523 154 2100ft 0kts
05-Jul-18 14:09 36.078371 -115.144819 94 2093ft 19kts
05-Jul-18 14:10 36.078254 -115.138925 89 2076ft 18kts
05-Jul-18 14:11 36.078259 -115.133199 89 2058ft 17kts
05-Jul-18 14:12 36.078269 -115.127151 89 2043ft 16kts
05-Jul-18 14:13 36.078022 -115.122386 127 2036ft 7kts
05-Jul-18 14:14 36.077284 -115.121389 172 2037ft 0kts
05-Jul-18 14:15 36.077284 -115.121389 172 2037ft 0kts
05-Jul-18 14:16 36.077284 -115.121389 172 2037ft 0kts
05-Jul-18 14:17 36.076492 -115.121524 232 2038ft 7kts
05-Jul-18 14:18 36.076385 -115.131629 269 2055ft 99kts
05-Jul-18 14:19 36.076073 -115.189623 270 3336ft 195kts
05-Jul-18 14:20 36.071018 -115.257960 235 5720ft 207kts
05-Jul-18 14:21 36.012801 -115.286076 199 6982ft 263kts
05-Jul-18 14:22 35.936959 -115.310272 185 8135ft 281kts
05-Jul-18 14:23 35.859770 -115.317174 185 10387ft 281kts
05-Jul-18 14:24 35.777307 -115.308492 175 12343ft 316kts
05-Jul-18 14:25 35.689143 -115.306245 201 14785ft 326kts
05-Jul-18 14:26 35.619129 -115.378011 225 17076ft 337kts
05-Jul-18 14:27 35.554632 -115.463312 226 19195ft 347kts
05-Jul-18 14:28 35.488660 -115.551368 227 21161ft 356kts
05-Jul-18 14:29 35.421304 -115.641863 227 22930ft 364kts
05-Jul-18 14:30 35.355386 -115.730257 227 24566ft 371kts
05-Jul-18 14:31 35.285826 -115.823361 226 26236ft 373kts
05-Jul-18 14:32 35.215060 -115.917443 225 27600ft 380kts
05-Jul-18 14:33 35.140310 -116.011679 225 28150ft 399kts
05-Jul-18 14:34 35.060511 -116.111939 225 28147ft 424kts
05-Jul-18 14:35 34.978313 -116.214981 225 28142ft 424kts
05-Jul-18 14:36 34.897268 -116.316323 225 28102ft 411kts
05-Jul-18 14:37 34.827222 -116.405195 225 28116ft 392kts
05-Jul-18 14:38 34.752022 -116.500843 225 28113ft 388kts
05-Jul-18 14:39 34.677348 -116.593512 219 25880ft 373kts
05-Jul-18 14:40 34.603062 -116.665527 217 23779ft 381kts
05-Jul-18 14:41 34.522074 -116.743899 217 21625ft 368kts
05-Jul-18 14:42 34.448997 -116.824484 221 19727ft 351kts
05-Jul-18 14:43 34.379270 -116.905289 221 17534ft 345kts
05-Jul-18 14:44 34.311462 -116.983583 222 15548ft 337kts
05-Jul-18 14:45 34.241446 -117.054826 211 14124ft 334kts
05-Jul-18 14:46 34.160838 -117.111225 204 13218ft 340kts
05-Jul-18 14:47 34.075559 -117.156115 202 12388ft 320kts
05-Jul-18 14:48 33.999335 -117.198069 215 12007ft 305kts
05-Jul-18 14:49 33.942225 -117.272666 228 11108ft 303kts
05-Jul-18 14:50 33.889424 -117.346969 230 9811ft 284kts
05-Jul-18 14:51 33.841141 -117.415097 230 8589ft 262kts
05-Jul-18 14:52 33.804279 -117.487470 251 7944ft 248kts
05-Jul-18 14:53 33.794992 -117.567270 273 7943ft 245kts
05-Jul-18 14:54 33.805641 -117.646718 299 7866ft 249kts
05-Jul-18 14:55 33.840880 -117.716978 301 5587ft 254kts
05-Jul-18 14:56 33.875607 -117.784477 301 4940ft 227kts
05-Jul-18 14:57 33.907625 -117.848901 301 4936ft 226kts
05-Jul-18 14:58 33.910193 -117.914218 203 4523ft 232kts
05-Jul-18 14:59 33.869001 -117.872826 112 3155ft 225kts
05-Jul-18 15:00 33.845546 -117.809103 127 2908ft 201kts
05-Jul-18 15:01 33.799751 -117.790481 207 2997ft 176kts
05-Jul-18 15:02 33.757256 -117.815554 211 1688ft 161kts
05-Jul-18 15:03 33.718399 -117.841446 210 937ft 150kts
05-Jul-18 15:04 33.680358 -117.865886 208 64ft 142kts
05-Jul-18 15:05 33.669680 -117.872097 159 64ft 9kts
05-Jul-18 15:06 33.669216 -117.871661 128 64ft 0kts
05-Jul-18 15:07 33.669448 -117.870612 42 64ft 12kts
05-Jul-18 15:08 33.671846 -117.868309 29 64ft 5kts
05-Jul-18 15:09 33.672885 -117.867531 45 64ft 3kts
05-Jul-18 15:10 33.674782 -117.866055 27 64ft 12kts
05-Jul-18 15:11 33.675568 -117.865554 37 64ft 0kts
05-Jul-18 15:12 33.675585 -117.865418 107 64ft 0kts
05-Jul-18 15:13 33.675442 -117.865048 117 64ft 1kts
05-Jul-18 15:14 33.675380 -117.864904 118 64ft 0kts

Navigation Log

Ident Type
Flight plan parsing failed, navigation log unavailable